Apostle Islands National Lak, Wisconsin
Current Conditions -  °F | °C
As of 3:53 PM on Sunday 25 Jan 2015 (Local Time) from KASX Reporting Station
Overcast Overcast  
Wind Chill: 12°   Ceiling: 11000
Heat Index: 20°   Visibility: 10mi
Dew Point: 10°   Wind: 6mph
Humidity: 65%   Direction: 350°N
Pressure: 30.04"   Gusts: NA
Location:  46.8614°N, 90.9101°W
Report Text: KASX 252153Z AUTO 35005KT 10SM OVC110 M07/M12 A3004 RMK AO2 SLP191 T10671122
Loading
Personal Weather Stations






























Interactive Weather Map New forecast layout! Learn more

10-Day Weather Forecast

Advertisements
Track Severe Weather on mobile